sensor_id;sensor_type;location;lat;lon;timestamp;P1;durP1;ratioP1;P2;durP2;ratioP2
27895;SDS011;15241;48.374;10.876;2023-08-08T00:02:59;1.95;;;0.90;;
27895;SDS011;15241;48.374;10.876;2023-08-08T00:08:17;0.90;;;0.70;;
27895;SDS011;15241;48.374;10.876;2023-08-08T00:13:36;0.90;;;0.90;;
27895;SDS011;15241;48.374;10.876;2023-08-08T00:18:54;1.62;;;1.05;;
27895;SDS011;15241;48.374;10.876;2023-08-08T00:24:11;1.07;;;0.98;;
27895;SDS011;15241;48.374;10.876;2023-08-08T00:29:29;0.85;;;0.75;;
27895;SDS011;15241;48.374;10.876;2023-08-08T00:34:47;1.50;;;0.82;;
27895;SDS011;15241;48.374;10.876;2023-08-08T00:40:06;1.77;;;0.82;;
27895;SDS011;15241;48.374;10.876;2023-08-08T00:45:25;0.80;;;0.72;;
27895;SDS011;15241;48.374;10.876;2023-08-08T00:50:43;1.50;;;0.80;;
27895;SDS011;15241;48.374;10.876;2023-08-08T00:56:01;2.47;;;0.80;;
27895;SDS011;15241;48.374;10.876;2023-08-08T01:01:18;1.17;;;1.10;;
27895;SDS011;15241;48.374;10.876;2023-08-08T01:06:37;1.17;;;0.93;;
27895;SDS011;15241;48.374;10.876;2023-08-08T01:11:45;1.20;;;0.82;;
27895;SDS011;15241;48.374;10.876;2023-08-08T01:17:04;1.20;;;0.70;;
27895;SDS011;15241;48.374;10.876;2023-08-08T01:22:23;1.57;;;0.75;;
27895;SDS011;15241;48.374;10.876;2023-08-08T01:27:44;1.15;;;0.90;;
27895;SDS011;15241;48.374;10.876;2023-08-08T01:33:02;1.75;;;0.95;;
27895;SDS011;15241;48.374;10.876;2023-08-08T01:38:23;0.90;;;0.72;;
27895;SDS011;15241;48.374;10.876;2023-08-08T01:43:41;2.47;;;0.90;;
27895;SDS011;15241;48.374;10.876;2023-08-08T01:48:59;1.47;;;0.75;;
27895;SDS011;15241;48.374;10.876;2023-08-08T01:54:16;0.82;;;0.70;;
27895;SDS011;15241;48.374;10.876;2023-08-08T01:59:33;1.15;;;0.78;;
27895;SDS011;15241;48.374;10.876;2023-08-08T02:04:51;1.35;;;1.02;;
27895;SDS011;15241;48.374;10.876;2023-08-08T02:10:09;0.95;;;0.90;;
27895;SDS011;15241;48.374;10.876;2023-08-08T02:15:27;1.80;;;1.00;;
27895;SDS011;15241;48.374;10.876;2023-08-08T02:20:45;2.50;;;0.80;;
27895;SDS011;15241;48.374;10.876;2023-08-08T02:26:03;1.00;;;0.90;;
27895;SDS011;15241;48.374;10.876;2023-08-08T02:31:21;2.27;;;1.62;;
27895;SDS011;15241;48.374;10.876;2023-08-08T02:36:38;0.88;;;0.60;;
27895;SDS011;15241;48.374;10.876;2023-08-08T02:41:55;1.67;;;0.93;;
27895;SDS011;15241;48.374;10.876;2023-08-08T02:47:12;4.10;;;0.98;;
27895;SDS011;15241;48.374;10.876;2023-08-08T02:52:30;1.17;;;0.75;;
27895;SDS011;15241;48.374;10.876;2023-08-08T02:57:48;1.15;;;0.85;;
27895;SDS011;15241;48.374;10.876;2023-08-08T03:03:05;1.90;;;0.85;;
27895;SDS011;15241;48.374;10.876;2023-08-08T03:08:23;1.70;;;1.07;;
27895;SDS011;15241;48.374;10.876;2023-08-08T03:13:41;2.27;;;0.70;;
27895;SDS011;15241;48.374;10.876;2023-08-08T03:18:58;1.30;;;0.88;;
27895;SDS011;15241;48.374;10.876;2023-08-08T03:24:16;1.55;;;1.10;;
27895;SDS011;15241;48.374;10.876;2023-08-08T03:29:33;1.12;;;0.93;;
27895;SDS011;15241;48.374;10.876;2023-08-08T03:34:51;0.95;;;0.60;;
27895;SDS011;15241;48.374;10.876;2023-08-08T03:40:09;0.70;;;0.65;;
27895;SDS011;15241;48.374;10.876;2023-08-08T03:45:28;0.88;;;0.70;;
27895;SDS011;15241;48.374;10.876;2023-08-08T03:50:45;1.60;;;0.80;;
27895;SDS011;15241;48.374;10.876;2023-08-08T03:56:04;2.27;;;0.85;;
27895;SDS011;15241;48.374;10.876;2023-08-08T04:01:21;6.10;;;1.10;;
27895;SDS011;15241;48.374;10.876;2023-08-08T04:06:38;1.35;;;0.75;;
27895;SDS011;15241;48.374;10.876;2023-08-08T04:11:56;2.37;;;0.90;;
27895;SDS011;15241;48.374;10.876;2023-08-08T04:17:14;2.83;;;1.45;;
27895;SDS011;15241;48.374;10.876;2023-08-08T04:22:31;2.17;;;0.88;;
27895;SDS011;15241;48.374;10.876;2023-08-08T04:27:48;1.37;;;0.90;;
27895;SDS011;15241;48.374;10.876;2023-08-08T04:33:06;2.72;;;0.95;;
27895;SDS011;15241;48.374;10.876;2023-08-08T04:38:24;1.37;;;1.22;;
27895;SDS011;15241;48.374;10.876;2023-08-08T04:43:41;1.37;;;1.12;;
27895;SDS011;15241;48.374;10.876;2023-08-08T04:48:59;0.80;;;0.70;;
27895;SDS011;15241;48.374;10.876;2023-08-08T04:54:17;1.35;;;1.00;;
27895;SDS011;15241;48.374;10.876;2023-08-08T04:59:35;0.80;;;0.70;;
27895;SDS011;15241;48.374;10.876;2023-08-08T05:04:52;1.60;;;1.00;;
27895;SDS011;15241;48.374;10.876;2023-08-08T05:10:10;1.45;;;1.15;;
27895;SDS011;15241;48.374;10.876;2023-08-08T05:15:28;1.70;;;1.00;;
27895;SDS011;15241;48.374;10.876;2023-08-08T05:20:45;1.50;;;1.10;;
27895;SDS011;15241;48.374;10.876;2023-08-08T05:26:02;1.80;;;1.02;;
27895;SDS011;15241;48.374;10.876;2023-08-08T05:31:20;0.90;;;0.90;;
27895;SDS011;15241;48.374;10.876;2023-08-08T05:36:38;1.50;;;0.90;;
27895;SDS011;15241;48.374;10.876;2023-08-08T05:41:55;0.70;;;0.70;;
27895;SDS011;15241;48.374;10.876;2023-08-08T05:47:13;1.20;;;0.90;;
27895;SDS011;15241;48.374;10.876;2023-08-08T05:52:30;1.35;;;0.90;;
27895;SDS011;15241;48.374;10.876;2023-08-08T05:57:47;1.47;;;1.00;;
27895;SDS011;15241;48.374;10.876;2023-08-08T06:03:05;1.70;;;0.90;;
27895;SDS011;15241;48.374;10.876;2023-08-08T06:08:23;1.45;;;0.80;;
27895;SDS011;15241;48.374;10.876;2023-08-08T06:13:40;1.65;;;0.80;;
27895;SDS011;15241;48.374;10.876;2023-08-08T06:18:58;2.15;;;1.02;;
27895;SDS011;15241;48.374;10.876;2023-08-08T06:24:16;1.82;;;0.90;;
27895;SDS011;15241;48.374;10.876;2023-08-08T06:29:33;1.98;;;1.00;;
27895;SDS011;15241;48.374;10.876;2023-08-08T06:34:51;1.22;;;0.80;;
27895;SDS011;15241;48.374;10.876;2023-08-08T06:40:10;1.17;;;1.00;;
27895;SDS011;15241;48.374;10.876;2023-08-08T06:45:29;3.02;;;1.10;;
27895;SDS011;15241;48.374;10.876;2023-08-08T06:50:46;1.02;;;0.90;;
27895;SDS011;15241;48.374;10.876;2023-08-08T06:56:04;0.95;;;0.85;;
27895;SDS011;15241;48.374;10.876;2023-08-08T07:01:22;1.17;;;1.00;;
27895;SDS011;15241;48.374;10.876;2023-08-08T07:06:41;1.52;;;0.90;;
27895;SDS011;15241;48.374;10.876;2023-08-08T07:11:59;1.15;;;0.93;;
27895;SDS011;15241;48.374;10.876;2023-08-08T07:17:16;1.40;;;0.90;;
27895;SDS011;15241;48.374;10.876;2023-08-08T07:22:33;1.12;;;0.80;;
27895;SDS011;15241;48.374;10.876;2023-08-08T07:27:52;2.25;;;1.10;;
27895;SDS011;15241;48.374;10.876;2023-08-08T07:33:10;1.35;;;0.80;;
27895;SDS011;15241;48.374;10.876;2023-08-08T07:38:27;1.00;;;0.93;;
27895;SDS011;15241;48.374;10.876;2023-08-08T07:43:45;1.82;;;0.88;;
27895;SDS011;15241;48.374;10.876;2023-08-08T07:49:02;3.12;;;1.12;;
27895;SDS011;15241;48.374;10.876;2023-08-08T07:54:20;2.30;;;0.80;;
27895;SDS011;15241;48.374;10.876;2023-08-08T07:59:37;1.95;;;0.98;;
27895;SDS011;15241;48.374;10.876;2023-08-08T08:04:54;2.87;;;0.90;;
27895;SDS011;15241;48.374;10.876;2023-08-08T08:10:12;2.70;;;1.42;;
27895;SDS011;15241;48.374;10.876;2023-08-08T08:15:29;1.40;;;0.82;;
27895;SDS011;15241;48.374;10.876;2023-08-08T08:20:48;2.40;;;1.32;;
27895;SDS011;15241;48.374;10.876;2023-08-08T08:26:06;1.50;;;0.90;;
27895;SDS011;15241;48.374;10.876;2023-08-08T08:31:23;2.33;;;1.30;;
27895;SDS011;15241;48.374;10.876;2023-08-08T08:36:41;3.35;;;1.10;;
27895;SDS011;15241;48.374;10.876;2023-08-08T08:41:59;3.08;;;1.32;;
27895;SDS011;15241;48.374;10.876;2023-08-08T08:47:19;1.67;;;1.00;;
27895;SDS011;15241;48.374;10.876;2023-08-08T08:52:37;1.92;;;1.25;;
27895;SDS011;15241;48.374;10.876;2023-08-08T08:57:55;1.72;;;1.00;;
27895;SDS011;15241;48.374;10.876;2023-08-08T09:03:12;1.10;;;1.00;;
27895;SDS011;15241;48.374;10.876;2023-08-08T09:08:29;4.25;;;1.52;;
27895;SDS011;15241;48.374;10.876;2023-08-08T09:13:46;2.12;;;1.47;;
27895;SDS011;15241;48.374;10.876;2023-08-08T09:19:04;1.95;;;1.47;;
27895;SDS011;15241;48.374;10.876;2023-08-08T09:24:21;2.37;;;1.25;;
27895;SDS011;15241;48.374;10.876;2023-08-08T09:29:39;1.77;;;1.20;;
27895;SDS011;15241;48.374;10.876;2023-08-08T09:34:57;2.85;;;1.27;;
27895;SDS011;15241;48.374;10.876;2023-08-08T09:40:15;2.12;;;1.37;;
27895;SDS011;15241;48.374;10.876;2023-08-08T09:45:36;4.42;;;2.90;;
27895;SDS011;15241;48.374;10.876;2023-08-08T09:50:55;1.37;;;1.17;;
27895;SDS011;15241;48.374;10.876;2023-08-08T09:56:13;1.98;;;1.20;;
27895;SDS011;15241;48.374;10.876;2023-08-08T10:01:31;1.85;;;1.25;;
27895;SDS011;15241;48.374;10.876;2023-08-08T10:06:49;2.15;;;1.60;;
27895;SDS011;15241;48.374;10.876;2023-08-08T10:12:07;2.87;;;1.17;;
27895;SDS011;15241;48.374;10.876;2023-08-08T10:17:27;1.27;;;1.10;;
27895;SDS011;15241;48.374;10.876;2023-08-08T10:22:45;1.35;;;1.20;;
27895;SDS011;15241;48.374;10.876;2023-08-08T10:28:05;1.82;;;1.20;;
27895;SDS011;15241;48.374;10.876;2023-08-08T10:33:25;2.30;;;1.37;;
27895;SDS011;15241;48.374;10.876;2023-08-08T10:38:44;1.80;;;1.42;;
27895;SDS011;15241;48.374;10.876;2023-08-08T10:44:01;1.90;;;1.30;;
27895;SDS011;15241;48.374;10.876;2023-08-08T10:49:21;2.52;;;1.50;;
27895;SDS011;15241;48.374;10.876;2023-08-08T10:54:39;2.33;;;1.40;;
27895;SDS011;15241;48.374;10.876;2023-08-08T11:00:16;2.33;;;1.40;;
27895;SDS011;15241;48.374;10.876;2023-08-08T11:10:52;2.22;;;1.40;;
27895;SDS011;15241;48.374;10.876;2023-08-08T11:16:09;2.45;;;1.00;;
27895;SDS011;15241;48.374;10.876;2023-08-08T11:21:27;3.87;;;1.67;;
27895;SDS011;15241;48.374;10.876;2023-08-08T11:26:44;1.55;;;1.10;;
27895;SDS011;15241;48.374;10.876;2023-08-08T11:32:03;1.40;;;1.10;;
27895;SDS011;15241;48.374;10.876;2023-08-08T11:37:22;3.08;;;1.42;;
27895;SDS011;15241;48.374;10.876;2023-08-08T11:42:39;4.80;;;1.07;;
27895;SDS011;15241;48.374;10.876;2023-08-08T11:47:57;2.50;;;1.65;;
27895;SDS011;15241;48.374;10.876;2023-08-08T11:53:15;2.15;;;1.35;;
27895;SDS011;15241;48.374;10.876;2023-08-08T11:58:33;1.50;;;1.40;;
27895;SDS011;15241;48.374;10.876;2023-08-08T12:03:53;3.02;;;1.02;;
27895;SDS011;15241;48.374;10.876;2023-08-08T12:09:11;2.15;;;1.30;;
27895;SDS011;15241;48.374;10.876;2023-08-08T12:14:29;4.03;;;1.40;;
27895;SDS011;15241;48.374;10.876;2023-08-08T12:19:48;2.95;;;2.00;;
27895;SDS011;15241;48.374;10.876;2023-08-08T12:25:06;1.67;;;0.95;;
27895;SDS011;15241;48.374;10.876;2023-08-08T12:30:24;1.52;;;1.10;;
27895;SDS011;15241;48.374;10.876;2023-08-08T12:35:41;3.67;;;1.15;;
27895;SDS011;15241;48.374;10.876;2023-08-08T12:40:58;2.58;;;1.25;;
27895;SDS011;15241;48.374;10.876;2023-08-08T12:46:17;2.12;;;1.25;;
27895;SDS011;15241;48.374;10.876;2023-08-08T12:51:35;2.75;;;1.20;;
27895;SDS011;15241;48.374;10.876;2023-08-08T12:56:53;1.25;;;1.12;;
27895;SDS011;15241;48.374;10.876;2023-08-08T13:02:10;1.40;;;1.30;;
27895;SDS011;15241;48.374;10.876;2023-08-08T13:07:28;1.80;;;1.42;;
27895;SDS011;15241;48.374;10.876;2023-08-08T13:12:46;1.80;;;1.62;;
27895;SDS011;15241;48.374;10.876;2023-08-08T13:18:04;1.25;;;1.15;;
27895;SDS011;15241;48.374;10.876;2023-08-08T13:23:22;1.62;;;1.25;;
27895;SDS011;15241;48.374;10.876;2023-08-08T13:28:40;1.25;;;1.10;;
27895;SDS011;15241;48.374;10.876;2023-08-08T13:33:58;2.83;;;1.10;;
27895;SDS011;15241;48.374;10.876;2023-08-08T13:39:16;3.95;;;1.30;;
27895;SDS011;15241;48.374;10.876;2023-08-08T13:44:34;3.25;;;1.42;;
27895;SDS011;15241;48.374;10.876;2023-08-08T13:49:51;4.70;;;1.30;;
27895;SDS011;15241;48.374;10.876;2023-08-08T13:55:09;2.92;;;1.20;;
27895;SDS011;15241;48.374;10.876;2023-08-08T14:00:26;1.42;;;1.05;;
27895;SDS011;15241;48.374;10.876;2023-08-08T14:05:44;1.80;;;1.02;;
27895;SDS011;15241;48.374;10.876;2023-08-08T14:11:01;2.95;;;1.37;;
27895;SDS011;15241;48.374;10.876;2023-08-08T14:16:19;1.92;;;1.22;;
27895;SDS011;15241;48.374;10.876;2023-08-08T14:21:36;1.82;;;1.17;;
27895;SDS011;15241;48.374;10.876;2023-08-08T14:26:54;2.52;;;1.45;;
27895;SDS011;15241;48.374;10.876;2023-08-08T14:32:11;1.50;;;1.30;;
27895;SDS011;15241;48.374;10.876;2023-08-08T14:37:29;2.17;;;1.12;;
27895;SDS011;15241;48.374;10.876;2023-08-08T14:42:46;1.32;;;1.12;;
27895;SDS011;15241;48.374;10.876;2023-08-08T14:48:04;3.40;;;1.37;;
27895;SDS011;15241;48.374;10.876;2023-08-08T14:53:22;2.83;;;1.20;;
27895;SDS011;15241;48.374;10.876;2023-08-08T14:58:40;2.45;;;1.47;;
27895;SDS011;15241;48.374;10.876;2023-08-08T15:03:58;1.65;;;1.35;;
27895;SDS011;15241;48.374;10.876;2023-08-08T15:09:15;2.90;;;1.55;;
27895;SDS011;15241;48.374;10.876;2023-08-08T15:14:32;2.10;;;1.40;;
27895;SDS011;15241;48.374;10.876;2023-08-08T15:19:50;3.12;;;1.95;;
27895;SDS011;15241;48.374;10.876;2023-08-08T15:25:08;4.53;;;1.87;;
27895;SDS011;15241;48.374;10.876;2023-08-08T15:30:26;3.80;;;1.30;;
27895;SDS011;15241;48.374;10.876;2023-08-08T15:35:44;2.35;;;1.30;;
27895;SDS011;15241;48.374;10.876;2023-08-08T15:41:01;1.37;;;1.20;;
27895;SDS011;15241;48.374;10.876;2023-08-08T15:46:19;2.10;;;1.50;;
27895;SDS011;15241;48.374;10.876;2023-08-08T15:51:36;1.55;;;1.30;;
27895;SDS011;15241;48.374;10.876;2023-08-08T15:56:54;3.67;;;1.60;;
27895;SDS011;15241;48.374;10.876;2023-08-08T16:02:11;2.85;;;1.45;;
27895;SDS011;15241;48.374;10.876;2023-08-08T16:07:29;1.50;;;1.40;;
27895;SDS011;15241;48.374;10.876;2023-08-08T16:12:47;3.05;;;1.45;;
27895;SDS011;15241;48.374;10.876;2023-08-08T16:18:05;1.92;;;1.40;;
27895;SDS011;15241;48.374;10.876;2023-08-08T16:23:22;1.98;;;1.25;;
27895;SDS011;15241;48.374;10.876;2023-08-08T16:28:39;2.02;;;1.30;;
27895;SDS011;15241;48.374;10.876;2023-08-08T16:33:57;1.32;;;1.10;;
27895;SDS011;15241;48.374;10.876;2023-08-08T16:39:15;2.83;;;1.57;;
27895;SDS011;15241;48.374;10.876;2023-08-08T16:44:32;3.10;;;1.50;;
27895;SDS011;15241;48.374;10.876;2023-08-08T16:49:50;1.60;;;1.50;;
27895;SDS011;15241;48.374;10.876;2023-08-08T16:55:07;2.12;;;1.37;;
27895;SDS011;15241;48.374;10.876;2023-08-08T17:00:25;2.67;;;1.42;;
27895;SDS011;15241;48.374;10.876;2023-08-08T17:05:42;2.10;;;1.65;;
27895;SDS011;15241;48.374;10.876;2023-08-08T17:11:00;2.25;;;1.50;;
27895;SDS011;15241;48.374;10.876;2023-08-08T17:16:17;2.25;;;1.50;;
27895;SDS011;15241;48.374;10.876;2023-08-08T17:21:35;3.00;;;1.85;;
27895;SDS011;15241;48.374;10.876;2023-08-08T17:26:53;3.80;;;1.45;;
27895;SDS011;15241;48.374;10.876;2023-08-08T17:32:10;3.02;;;1.60;;
27895;SDS011;15241;48.374;10.876;2023-08-08T17:37:28;2.95;;;1.42;;
27895;SDS011;15241;48.374;10.876;2023-08-08T17:42:46;4.78;;;1.67;;
27895;SDS011;15241;48.374;10.876;2023-08-08T17:48:04;3.40;;;1.45;;
27895;SDS011;15241;48.374;10.876;2023-08-08T17:53:22;1.50;;;1.40;;
27895;SDS011;15241;48.374;10.876;2023-08-08T17:58:39;1.57;;;1.32;;
27895;SDS011;15241;48.374;10.876;2023-08-08T18:03:56;2.45;;;1.27;;
27895;SDS011;15241;48.374;10.876;2023-08-08T18:09:14;3.35;;;1.30;;
27895;SDS011;15241;48.374;10.876;2023-08-08T18:14:32;2.55;;;1.52;;
27895;SDS011;15241;48.374;10.876;2023-08-08T18:19:49;4.92;;;1.50;;
27895;SDS011;15241;48.374;10.876;2023-08-08T18:25:08;1.50;;;1.35;;
27895;SDS011;15241;48.374;10.876;2023-08-08T18:30:25;5.62;;;1.50;;
27895;SDS011;15241;48.374;10.876;2023-08-08T18:35:43;3.08;;;1.50;;
27895;SDS011;15241;48.374;10.876;2023-08-08T18:41:01;2.65;;;1.52;;
27895;SDS011;15241;48.374;10.876;2023-08-08T18:46:18;2.17;;;1.45;;
27895;SDS011;15241;48.374;10.876;2023-08-08T18:51:35;3.08;;;1.42;;
27895;SDS011;15241;48.374;10.876;2023-08-08T18:56:53;2.47;;;1.50;;
27895;SDS011;15241;48.374;10.876;2023-08-08T19:02:10;4.85;;;1.65;;
27895;SDS011;15241;48.374;10.876;2023-08-08T19:07:28;3.62;;;1.57;;
27895;SDS011;15241;48.374;10.876;2023-08-08T19:12:46;2.98;;;1.60;;
27895;SDS011;15241;48.374;10.876;2023-08-08T19:18:04;4.40;;;1.40;;
27895;SDS011;15241;48.374;10.876;2023-08-08T19:23:22;2.80;;;1.62;;
27895;SDS011;15241;48.374;10.876;2023-08-08T19:28:39;1.75;;;1.22;;
27895;SDS011;15241;48.374;10.876;2023-08-08T19:33:59;3.62;;;1.62;;
27895;SDS011;15241;48.374;10.876;2023-08-08T19:39:17;4.50;;;1.90;;
27895;SDS011;15241;48.374;10.876;2023-08-08T19:44:34;2.75;;;1.80;;
27895;SDS011;15241;48.374;10.876;2023-08-08T19:49:52;2.98;;;1.80;;
27895;SDS011;15241;48.374;10.876;2023-08-08T19:55:10;2.85;;;1.60;;
27895;SDS011;15241;48.374;10.876;2023-08-08T20:00:27;4.22;;;1.85;;
27895;SDS011;15241;48.374;10.876;2023-08-08T20:05:45;3.90;;;1.50;;
27895;SDS011;15241;48.374;10.876;2023-08-08T20:11:02;3.02;;;1.90;;
27895;SDS011;15241;48.374;10.876;2023-08-08T20:16:19;3.92;;;1.45;;
27895;SDS011;15241;48.374;10.876;2023-08-08T20:21:36;2.87;;;2.25;;
27895;SDS011;15241;48.374;10.876;2023-08-08T20:26:54;4.47;;;2.17;;
27895;SDS011;15241;48.374;10.876;2023-08-08T20:32:11;2.67;;;1.77;;
27895;SDS011;15241;48.374;10.876;2023-08-08T20:37:29;2.45;;;1.55;;
27895;SDS011;15241;48.374;10.876;2023-08-08T20:42:47;3.62;;;1.72;;
27895;SDS011;15241;48.374;10.876;2023-08-08T20:48:04;2.75;;;1.55;;
27895;SDS011;15241;48.374;10.876;2023-08-08T20:53:22;2.17;;;1.90;;
27895;SDS011;15241;48.374;10.876;2023-08-08T20:58:40;5.15;;;2.20;;
27895;SDS011;15241;48.374;10.876;2023-08-08T21:03:58;2.50;;;1.55;;
27895;SDS011;15241;48.374;10.876;2023-08-08T21:09:15;3.35;;;1.85;;
27895;SDS011;15241;48.374;10.876;2023-08-08T21:14:33;2.75;;;1.80;;
27895;SDS011;15241;48.374;10.876;2023-08-08T21:19:50;3.17;;;2.12;;
27895;SDS011;15241;48.374;10.876;2023-08-08T21:25:08;2.42;;;1.60;;
27895;SDS011;15241;48.374;10.876;2023-08-08T21:30:26;3.50;;;1.52;;
27895;SDS011;15241;48.374;10.876;2023-08-08T21:35:44;5.05;;;1.60;;
27895;SDS011;15241;48.374;10.876;2023-08-08T21:41:01;8.55;;;1.72;;
27895;SDS011;15241;48.374;10.876;2023-08-08T21:46:18;4.03;;;1.90;;
27895;SDS011;15241;48.374;10.876;2023-08-08T21:51:36;4.00;;;1.90;;
27895;SDS011;15241;48.374;10.876;2023-08-08T21:56:54;2.65;;;2.08;;
27895;SDS011;15241;48.374;10.876;2023-08-08T22:02:11;3.12;;;2.05;;
27895;SDS011;15241;48.374;10.876;2023-08-08T22:07:29;3.40;;;1.75;;
27895;SDS011;15241;48.374;10.876;2023-08-08T22:12:46;2.30;;;1.60;;
27895;SDS011;15241;48.374;10.876;2023-08-08T22:18:09;2.65;;;1.70;;
27895;SDS011;15241;48.374;10.876;2023-08-08T22:23:28;4.50;;;2.00;;
27895;SDS011;15241;48.374;10.876;2023-08-08T22:28:45;3.25;;;1.90;;
27895;SDS011;15241;48.374;10.876;2023-08-08T22:34:03;2.85;;;1.95;;
27895;SDS011;15241;48.374;10.876;2023-08-08T22:39:21;3.90;;;1.90;;
27895;SDS011;15241;48.374;10.876;2023-08-08T22:44:38;5.08;;;2.10;;
27895;SDS011;15241;48.374;10.876;2023-08-08T22:49:56;3.35;;;2.00;;
27895;SDS011;15241;48.374;10.876;2023-08-08T22:55:14;3.05;;;1.80;;
27895;SDS011;15241;48.374;10.876;2023-08-08T23:00:31;4.40;;;2.22;;
27895;SDS011;15241;48.374;10.876;2023-08-08T23:05:49;3.15;;;2.00;;
27895;SDS011;15241;48.374;10.876;2023-08-08T23:11:06;2.62;;;2.17;;
27895;SDS011;15241;48.374;10.876;2023-08-08T23:16:24;3.12;;;2.20;;
27895;SDS011;15241;48.374;10.876;2023-08-08T23:21:41;3.98;;;1.77;;
27895;SDS011;15241;48.374;10.876;2023-08-08T23:26:59;4.37;;;2.33;;
27895;SDS011;15241;48.374;10.876;2023-08-08T23:32:17;4.28;;;1.92;;
27895;SDS011;15241;48.374;10.876;2023-08-08T23:37:34;1.90;;;1.80;;
27895;SDS011;15241;48.374;10.876;2023-08-08T23:42:52;4.30;;;1.75;;
27895;SDS011;15241;48.374;10.876;2023-08-08T23:48:09;3.05;;;1.95;;
27895;SDS011;15241;48.374;10.876;2023-08-08T23:53:27;3.77;;;1.92;;
27895;SDS011;15241;48.374;10.876;2023-08-08T23:58:44;2.30;;;1.72;;
